Time;durP1;ratioP1;P1;durP2;ratioP2;P2;SDS_P1;SDS_P2;PMS_P1;PMS_P2;Temp;Humidity;BMP_temperature;BMP_pressure;BME280_temperature;BME280_humidity;BME280_pressure;Samples;Min_cycle;Max_cycle;Signal;HPM_P1;HPM_P2
2022/04/18 00:00:25;;;;;;;4.00;2.92;;;5.40;99.90;;;;;;4991252;28;20129;-80
2022/04/18 00:02:53;;;;;;;7.38;2.28;;;5.40;99.90;;;;;;4989218;28;20518;-79
2022/04/18 00:05:21;;;;;;;5.88;2.47;;;5.40;99.90;;;;;;4979853;28;20150;-81
2022/04/18 00:07:48;;;;;;;3.90;2.90;;;5.40;99.90;;;;;;4976395;28;20522;-80
2022/04/18 00:10:16;;;;;;;8.45;2.67;;;5.50;99.90;;;;;;5007385;28;20054;-80
2022/04/18 00:12:44;;;;;;;5.32;2.42;;;5.50;99.90;;;;;;4992715;28;20054;-80
2022/04/18 00:15:11;;;;;;;5.68;2.25;;;5.50;99.90;;;;;;4987661;28;20043;-79
2022/04/18 00:17:39;;;;;;;4.57;1.58;;;5.50;99.90;;;;;;4977205;28;20050;-80
2022/04/18 00:20:10;;;;;;;5.30;1.67;;;5.50;99.90;;;;;;4975877;28;20042;-80
2022/04/18 00:22:38;;;;;;;4.40;2.05;;;5.50;99.90;;;;;;5006714;28;20046;-80
2022/04/18 00:25:07;;;;;;;3.53;1.92;;;5.50;99.90;;;;;;4991304;28;20073;-80
2022/04/18 00:27:35;;;;;;;5.32;2.25;;;5.50;99.90;;;;;;4987274;28;20086;-81
2022/04/18 00:30:02;;;;;;;3.42;2.13;;;5.50;99.90;;;;;;4977487;28;20189;-79
2022/04/18 00:32:31;;;;;;;3.97;2.30;;;5.50;99.90;;;;;;4980298;28;20084;-80
2022/04/18 00:34:59;;;;;;;4.38;2.08;;;5.50;99.90;;;;;;4987486;28;20550;-80
2022/04/18 00:37:28;;;;;;;2.40;2.15;;;5.50;99.90;;;;;;5003497;28;20114;-80
2022/04/18 00:39:55;;;;;;;2.95;2.08;;;5.40;99.90;;;;;;4975581;28;20422;-80
2022/04/18 00:42:22;;;;;;;5.22;2.30;;;5.50;99.90;;;;;;4989372;28;20042;-80
2022/04/18 00:44:50;;;;;;;5.10;2.25;;;5.50;99.90;;;;;;4985489;28;20539;-80
2022/04/18 00:47:18;;;;;;;3.25;2.40;;;5.50;99.90;;;;;;4990796;28;20085;-80
2022/04/18 00:49:45;;;;;;;4.70;2.10;;;5.50;99.90;;;;;;4984031;28;20066;-78
2022/04/18 00:52:13;;;;;;;4.60;2.58;;;5.50;99.90;;;;;;4990457;28;20053;-78
2022/04/18 00:54:44;;;;;;;3.30;2.35;;;5.50;99.90;;;;;;4990496;28;20088;-78
2022/04/18 00:57:12;;;;;;;11.60;2.78;;;5.50;99.90;;;;;;4990439;28;20404;-79
2022/04/18 00:59:39;;;;;;;6.47;2.08;;;5.50;99.90;;;;;;4987276;28;20054;-79
2022/04/18 01:02:13;;;;;;;2.20;2.00;;;5.50;99.90;;;;;;4986669;28;20506;-79
2022/04/18 01:04:40;;;;;;;10.82;2.20;;;5.50;99.90;;;;;;4971173;28;20395;-79
2022/04/18 01:07:09;;;;;;;8.68;1.98;;;5.40;99.90;;;;;;4972451;28;20097;-81
2022/04/18 01:09:36;;;;;;;6.38;2.75;;;5.40;99.90;;;;;;4990170;28;20051;-81
2022/04/18 01:12:06;;;;;;;4.57;2.00;;;5.40;99.90;;;;;;4974124;28;20055;-79
2022/04/18 01:14:53;;;;;;;4.38;1.92;;;5.40;99.90;;;;;;5018789;28;20047;-80
2022/04/18 01:17:39;;;;;;;3.08;1.98;;;5.40;99.90;;;;;;4999846;28;20057;-80
2022/04/18 01:20:19;;;;;;;5.40;2.25;;;5.40;99.90;;;;;;5002723;28;20550;-80
2022/04/18 01:23:11;;;;;;;5.38;2.60;;;5.30;99.90;;;;;;5013509;28;20058;-80
2022/04/18 01:29:01;;;;;;;5.10;2.35;;;5.30;99.90;;;;;;5008412;28;20054;-80
2022/04/18 01:31:33;;;;;;;3.20;2.45;;;5.30;99.90;;;;;;5012632;28;20070;-78
2022/04/18 01:34:02;;;;;;;2.55;2.03;;;5.30;99.90;;;;;;4991319;28;20423;-78
2022/04/18 01:36:31;;;;;;;3.72;2.40;;;5.40;99.90;;;;;;4975734;28;20059;-78
2022/04/18 01:39:03;;;;;;;4.80;2.28;;;5.40;99.90;;;;;;4990112;28;20057;-78
2022/04/18 01:41:31;;;;;;;4.43;2.45;;;5.40;99.90;;;;;;4985241;28;20050;-78
2022/04/18 01:43:59;;;;;;;6.30;2.92;;;5.40;99.90;;;;;;4991696;28;20082;-78
2022/04/18 01:46:27;;;;;;;7.38;3.08;;;5.40;99.90;;;;;;4993621;28;20070;-78
2022/04/18 01:48:55;;;;;;;4.50;2.55;;;5.40;99.90;;;;;;4990278;28;20050;-82
2022/04/18 01:51:22;;;;;;;4.72;2.35;;;5.40;99.90;;;;;;4994233;28;20145;-79
2022/04/18 01:53:50;;;;;;;4.47;2.40;;;5.30;99.90;;;;;;4978771;28;20058;-79
2022/04/18 01:56:20;;;;;;;7.40;2.25;;;5.30;99.90;;;;;;4990374;28;20141;-79
2022/04/18 01:58:48;;;;;;;5.88;2.20;;;5.30;99.90;;;;;;4987590;28;20097;-79
2022/04/18 02:01:17;;;;;;;5.47;2.20;;;5.20;99.90;;;;;;4990870;28;20073;-79
2022/04/18 02:03:45;;;;;;;5.57;1.92;;;5.20;99.90;;;;;;4973373;28;20045;-78
2022/04/18 02:06:12;;;;;;;6.05;2.03;;;5.10;99.90;;;;;;5012715;28;20042;-78
2022/04/18 02:08:40;;;;;;;5.63;2.25;;;5.20;99.90;;;;;;4983921;28;20054;-79
2022/04/18 02:11:09;;;;;;;7.35;2.63;;;5.20;99.90;;;;;;4991681;28;20046;-79
2022/04/18 02:13:40;;;;;;;4.80;2.17;;;5.20;99.90;;;;;;4998191;28;20046;-78
2022/04/18 02:16:11;;;;;;;2.83;2.30;;;5.20;99.90;;;;;;4992505;28;20118;-78
2022/04/18 02:18:42;;;;;;;5.45;2.30;;;5.20;99.90;;;;;;5005983;28;20093;-78
2022/04/18 02:21:12;;;;;;;3.75;2.53;;;5.30;99.90;;;;;;5025919;28;20592;-77
2022/04/18 02:23:39;;;;;;;4.20;2.15;;;5.30;99.90;;;;;;5007678;28;20491;-78
2022/04/18 02:26:07;;;;;;;3.03;2.17;;;5.30;99.90;;;;;;4985752;28;20055;-77
2022/04/18 02:28:35;;;;;;;3.95;2.30;;;5.30;99.90;;;;;;4993067;28;20406;-78
2022/04/18 02:31:09;;;;;;;5.47;2.60;;;5.40;99.90;;;;;;4991120;28;20065;-79
2022/04/18 02:33:37;;;;;;;3.13;1.90;;;5.40;99.90;;;;;;4974545;28;20082;-78
2022/04/18 02:36:05;;;;;;;4.15;1.52;;;5.40;99.90;;;;;;4978027;28;20057;-78
2022/04/18 02:38:33;;;;;;;4.35;1.73;;;5.40;99.90;;;;;;4989514;28;20082;-78
2022/04/18 02:41:01;;;;;;;2.30;1.90;;;5.40;99.90;;;;;;5008356;28;20043;-77
2022/04/18 02:43:29;;;;;;;2.67;1.83;;;5.40;99.90;;;;;;4990134;28;20109;-78
2022/04/18 02:46:06;;;;;;;2.78;1.90;;;5.40;99.90;;;;;;4977920;28;20514;-78
2022/04/18 02:48:44;;;;;;;3.95;1.70;;;5.40;99.90;;;;;;4982271;28;20089;-78
2022/04/18 02:51:15;;;;;;;3.85;2.15;;;5.40;99.90;;;;;;4957301;28;20109;-78
2022/04/18 02:53:44;;;;;;;2.47;1.70;;;5.40;99.90;;;;;;4986528;28;20157;-78
2022/04/18 02:56:12;;;;;;;2.45;1.60;;;5.40;99.90;;;;;;4991915;28;20050;-80
2022/04/18 02:58:46;;;;;;;3.55;1.92;;;5.40;99.90;;;;;;4959765;28;20496;-80
2022/04/18 03:01:14;;;;;;;3.15;1.83;;;5.30;99.90;;;;;;5006739;28;20485;-79
2022/04/18 03:03:44;;;;;;;6.05;2.20;;;5.20;99.90;;;;;;5005073;28;20098;-78
2022/04/18 03:06:11;;;;;;;19.80;2.78;;;5.20;99.90;;;;;;4990608;28;20089;-78
2022/04/18 03:08:39;;;;;;;3.88;1.83;;;5.30;99.90;;;;;;4979999;28;20050;-78
2022/04/18 03:11:07;;;;;;;4.55;2.70;;;5.30;99.90;;;;;;4971282;28;20050;-77
2022/04/18 03:13:43;;;;;;;5.97;2.17;;;5.30;99.90;;;;;;4991254;28;20067;-77
2022/04/18 03:16:18;;;;;;;4.35;1.90;;;5.30;99.90;;;;;;4983874;28;20042;-79
2022/04/18 03:18:47;;;;;;;4.15;1.60;;;5.30;99.90;;;;;;4980488;28;20064;-79
2022/04/18 03:21:16;;;;;;;4.75;2.17;;;5.30;99.90;;;;;;5012617;28;20077;-80
2022/04/18 03:23:45;;;;;;;4.13;2.13;;;5.40;99.90;;;;;;5009136;28;20145;-80
2022/04/18 03:26:23;;;;;;;5.53;3.33;;;5.40;99.90;;;;;;5009731;28;20042;-79
2022/04/18 03:29:11;;;;;;;12.88;2.90;;;5.40;99.90;;;;;;4991399;28;20062;-80
2022/04/18 03:31:39;;;;;;;4.90;2.70;;;5.40;99.90;;;;;;5003168;28;20109;-80
2022/04/18 03:34:10;;;;;;;23.17;6.82;;;5.40;99.90;;;;;;4972318;28;20058;-79
2022/04/18 03:42:09;;;;;;;21.40;5.30;;;5.50;99.90;;;;;;5006274;28;20042;-77
2022/04/18 03:44:43;;;;;;;4.13;2.40;;;5.50;99.90;;;;;;4974443;28;20481;-77
2022/04/18 03:47:12;;;;;;;4.07;2.38;;;5.50;99.90;;;;;;5007063;28;20055;-77
2022/04/18 03:49:42;;;;;;;2.67;1.88;;;5.50;99.90;;;;;;4991166;28;20576;-81
2022/04/18 03:52:10;;;;;;;6.20;2.08;;;5.60;99.90;;;;;;4974700;28;20050;-80
2022/04/18 03:54:40;;;;;;;5.85;2.50;;;5.60;99.90;;;;;;4989380;28;20050;-79
2022/04/18 03:57:09;;;;;;;4.22;2.30;;;5.60;99.90;;;;;;4982420;28;20580;-81
2022/04/18 03:59:46;;;;;;;5.65;2.50;;;5.60;99.90;;;;;;4978673;28;20101;-79
2022/04/18 04:02:14;;;;;;;5.75;2.78;;;5.70;99.90;;;;;;4983830;28;20050;-80
2022/04/18 04:04:47;;;;;;;5.20;2.60;;;5.70;99.90;;;;;;4971419;28;20058;-79
2022/04/18 04:07:15;;;;;;;10.48;3.67;;;5.70;99.90;;;;;;4973800;28;20054;-79
2022/04/18 04:09:53;;;;;;;5.97;3.03;;;5.80;99.90;;;;;;4986122;28;20046;-81
2022/04/18 04:12:24;;;;;;;7.50;2.83;;;5.90;99.90;;;;;;4989751;28;20055;-81
2022/04/18 04:15:24;;;;;;;11.10;3.47;;;5.90;99.90;;;;;;4970071;28;20487;-81
2022/04/18 04:18:04;;;;;;;8.02;2.78;;;5.90;99.90;;;;;;5013286;28;20137;-80
2022/04/18 04:20:39;;;;;;;2.92;2.72;;;5.90;99.90;;;;;;4993073;28;20519;-84
2022/04/18 04:23:13;;;;;;;10.27;2.85;;;5.90;99.90;;;;;;5000935;28;20049;-84
2022/04/18 04:25:59;;;;;;;9.98;3.53;;;5.80;99.90;;;;;;4970999;28;20067;-83
2022/04/18 04:28:43;;;;;;;11.05;3.25;;;5.70;99.90;;;;;;4981503;28;20111;-85
2022/04/18 04:31:13;;;;;;;5.50;2.90;;;5.70;99.90;;;;;;4987604;28;20422;-85
2022/04/18 04:33:40;;;;;;;11.00;3.28;;;5.70;99.90;;;;;;4977833;28;20050;-84
2022/04/18 04:36:12;;;;;;;7.65;2.92;;;5.70;99.90;;;;;;4991121;28;20062;-85
2022/04/18 04:38:41;;;;;;;11.82;3.35;;;5.80;99.90;;;;;;4990422;28;20076;-85
2022/04/18 04:41:16;;;;;;;12.48;4.18;;;5.90;99.90;;;;;;4978680;28;20043;-85
2022/04/18 04:43:49;;;;;;;18.55;3.60;;;6.00;99.90;;;;;;4971293;28;20141;-86
2022/04/18 04:46:33;;;;;;;11.27;2.97;;;6.20;99.90;;;;;;4983985;28;20042;-86
2022/04/18 04:49:12;;;;;;;11.30;3.80;;;6.30;99.90;;;;;;5005035;28;20203;-87
2022/04/18 04:51:47;;;;;;;22.50;3.75;;;6.40;99.90;;;;;;4964303;28;20039;-88
2022/04/18 04:54:18;;;;;;;15.73;3.72;;;6.40;99.90;;;;;;5004225;28;20116;-87
2022/04/18 04:56:46;;;;;;;18.17;3.92;;;6.50;99.90;;;;;;4997078;28;20105;-82
2022/04/18 04:59:14;;;;;;;17.33;3.25;;;6.60;99.90;;;;;;4990061;28;20116;-82
2022/04/18 05:01:41;;;;;;;18.58;4.03;;;6.70;99.90;;;;;;4984112;28;20050;-84
2022/04/18 05:04:12;;;;;;;16.48;4.32;;;6.80;99.90;;;;;;4968879;28;20049;-79
2022/04/18 05:06:42;;;;;;;12.38;3.45;;;6.90;99.90;;;;;;5006109;28;20055;-83
2022/04/18 05:09:16;;;;;;;;;;;7.00;99.90;;;;;;4991126;28;20046;-86
2022/04/18 05:11:44;;;;;;;17.58;3.67;;;7.10;99.90;;;;;;4972124;28;19984;-83
2022/04/18 05:14:14;;;;;;;9.55;3.70;;;7.10;99.90;;;;;;4974051;28;20053;-86
2022/04/18 05:16:51;;;;;;;14.52;3.45;;;7.20;99.90;;;;;;4988495;28;20483;-87
2022/04/18 05:19:19;;;;;;;9.52;3.20;;;7.40;99.90;;;;;;4972996;28;20089;-83
2022/04/18 05:21:48;;;;;;;23.65;4.57;;;7.50;99.90;;;;;;5022350;28;20070;-91
2022/04/18 05:24:24;;;;;;;18.60;3.30;;;7.60;99.90;;;;;;5002350;28;20098;-91
2022/04/18 05:26:51;;;;;;;13.57;3.40;;;7.70;99.90;;;;;;4989261;28;20191;-90
2022/04/18 05:29:20;;;;;;;15.60;3.45;;;7.90;99.90;;;;;;4971826;28;20556;-87
2022/04/18 05:31:49;;;;;;;17.50;4.28;;;8.00;99.90;;;;;;5006298;28;20141;-89
2022/04/18 05:34:17;;;;;;;11.70;3.45;;;8.10;99.90;;;;;;4993546;28;20117;-87
2022/04/18 05:36:53;;;;;;;16.50;3.83;;;8.20;99.90;;;;;;5020291;28;20566;-90
2022/04/18 05:39:48;;;;;;;6.07;3.38;;;8.30;99.90;;;;;;4987537;28;20061;-89
2022/04/18 05:42:16;;;;;;;21.40;3.60;;;8.40;99.90;;;;;;4988427;28;20050;-90
2022/04/18 05:44:44;;;;;;;15.13;3.50;;;8.70;99.90;;;;;;4983634;28;20080;-87
2022/04/18 05:47:11;;;;;;;18.35;4.20;;;8.90;99.90;;;;;;5012040;28;20108;-91
2022/04/18 05:49:39;;;;;;;10.82;3.33;;;9.20;99.90;;;;;;4957209;28;20297;-85
2022/04/18 05:52:07;;;;;;;12.38;3.38;;;9.40;99.90;;;;;;5003079;28;20058;-82
2022/04/18 05:54:37;;;;;;;8.60;3.33;;;9.50;99.90;;;;;;4987700;28;20112;-78
2022/04/18 05:57:07;;;;;;;7.57;3.15;;;9.70;99.90;;;;;;4985388;28;20046;-80
2022/04/18 05:59:49;;;;;;;17.10;4.82;;;9.80;99.90;;;;;;5001350;28;20052;-79
2022/04/18 06:02:19;;;;;;;14.80;4.20;;;9.90;99.90;;;;;;5002748;28;20042;-77
2022/04/18 06:05:00;;;;;;;13.15;4.75;;;9.90;99.90;;;;;;5006635;28;20374;-77
2022/04/18 06:07:46;;;;;;;9.85;3.45;;;9.90;99.90;;;;;;4999909;28;20124;-77
2022/04/18 06:10:40;;;;;;;18.25;3.47;;;10.00;99.90;;;;;;4999740;28;20494;-78
2022/04/18 06:13:27;;;;;;;15.98;3.90;;;10.10;99.90;;;;;;4998103;28;20046;-78
2022/04/18 06:15:55;;;;;;;15.35;3.08;;;10.30;99.90;;;;;;5006130;28;20525;-78
2022/04/18 06:18:24;;;;;;;11.38;3.30;;;10.50;99.90;;;;;;5010775;28;20080;-78
2022/04/18 06:20:53;;;;;;;11.80;4.40;;;10.60;99.90;;;;;;4993974;28;20069;-79
2022/04/18 06:23:21;;;;;;;23.75;3.58;;;10.60;99.90;;;;;;5026829;28;20046;-78
2022/04/18 06:25:55;;;;;;;13.27;3.45;;;10.40;99.90;;;;;;5009160;28;20046;-79
2022/04/18 06:28:24;;;;;;;25.75;4.20;;;10.20;99.90;;;;;;5027008;28;20061;-79
2022/04/18 06:30:55;;;;;;;15.48;4.20;;;10.20;99.90;;;;;;5010539;28;20041;-78
2022/04/18 06:33:34;;;;;;;16.88;4.57;;;10.20;99.90;;;;;;4989747;28;20569;-78
2022/04/18 06:36:04;;;;;;;18.98;3.95;;;10.30;99.90;;;;;;5027246;28;20046;-76
2022/04/18 06:38:36;;;;;;;16.63;4.75;;;10.30;99.90;;;;;;5023478;28;20088;-78
2022/04/18 06:41:08;;;;;;;23.48;5.30;;;10.30;99.90;;;;;;5026917;28;20136;-78
2022/04/18 06:43:37;;;;;;;25.60;5.68;;;10.30;99.90;;;;;;5043456;28;20070;-78
2022/04/18 06:46:12;;;;;;;25.10;5.20;;;10.20;99.90;;;;;;5019637;28;20140;-78
2022/04/18 06:48:39;;;;;;;17.02;4.28;;;10.40;99.90;;;;;;5015674;28;20538;-79
2022/04/18 06:51:33;;;;;;;;;;;10.70;99.90;;;;;;4986889;28;20141;-77
2022/04/18 06:54:03;;;;;;;7.75;2.78;;;11.10;99.90;;;;;;4980981;28;19926;-79
2022/04/18 06:57:00;;;;;;;10.27;3.67;;;11.30;99.90;;;;;;4990314;28;20050;-80
2022/04/18 06:59:38;;;;;;;25.08;3.97;;;11.60;99.60;;;;;;5003825;28;20066;-80
2022/04/18 07:02:13;;;;;;;21.45;4.03;;;11.90;96.50;;;;;;4993854;28;20049;-80
2022/04/18 07:04:41;;;;;;;19.05;4.25;;;12.10;94.20;;;;;;5005396;28;20510;-81
2022/04/18 07:07:08;;;;;;;20.38;4.07;;;12.40;92.80;;;;;;4971130;28;20142;-78
2022/04/18 07:09:36;;;;;;;18.63;4.60;;;12.90;92.00;;;;;;4990423;28;20054;-77
2022/04/18 07:12:12;;;;;;;15.15;3.75;;;13.60;89.30;;;;;;4985176;28;20074;-78
2022/04/18 07:14:39;;;;;;;12.35;4.60;;;14.70;78.90;;;;;;5018472;28;20124;-79
2022/04/18 07:17:10;;;;;;;21.85;4.25;;;15.40;73.60;;;;;;4989961;28;20055;-77
2022/04/18 07:19:38;;;;;;;18.08;4.55;;;16.00;69.10;;;;;;4992220;28;20062;-77
2022/04/18 07:22:14;;;;;;;10.68;2.95;;;16.40;65.20;;;;;;5009104;28;20050;-77
2022/04/18 07:24:42;;;;;;;18.42;3.55;;;16.70;62.80;;;;;;4978145;28;20046;-77
2022/04/18 07:27:09;;;;;;;15.35;3.20;;;16.80;61.80;;;;;;4973390;28;20056;-78
2022/04/18 07:29:44;;;;;;;14.23;3.70;;;17.00;61.70;;;;;;4970373;28;20055;-77
2022/04/18 07:32:14;;;;;;;16.73;4.10;;;17.50;60.70;;;;;;4954315;28;20047;-78
2022/04/18 07:34:42;;;;;;;25.13;3.63;;;18.00;59.20;;;;;;4989336;28;20503;-77
2022/04/18 07:37:18;;;;;;;15.70;3.80;;;18.70;57.40;;;;;;4989160;28;20061;-78
2022/04/18 07:39:46;;;;;;;14.90;3.80;;;18.90;56.10;;;;;;4987293;28;20400;-78
2022/04/18 07:42:14;;;;;;;15.85;4.60;;;18.90;55.70;;;;;;4988006;28;20050;-78
2022/04/18 07:44:41;;;;;;;13.05;3.78;;;18.90;55.30;;;;;;4989787;28;20399;-78
2022/04/18 07:47:10;;;;;;;20.05;3.92;;;19.00;55.30;;;;;;4973772;28;20495;-79
2022/04/18 07:49:39;;;;;;;40.13;5.40;;;18.60;55.90;;;;;;4986052;28;20537;-78
2022/04/18 07:52:08;;;;;;;22.52;5.05;;;18.30;56.20;;;;;;4972750;28;20058;-79
2022/04/18 07:54:40;;;;;;;18.92;3.95;;;18.20;56.50;;;;;;5041205;28;20049;-83
2022/04/18 07:57:08;;;;;;;11.88;3.53;;;18.20;56.30;;;;;;5026363;28;20054;-83
2022/04/18 07:59:40;;;;;;;13.55;3.20;;;18.10;56.10;;;;;;4988691;28;20037;-83
2022/04/18 08:02:09;;;;;;;11.50;3.85;;;17.80;56.70;;;;;;4976372;28;20046;-82
2022/04/18 08:04:56;;;;;;;12.95;3.20;;;17.80;57.20;;;;;;4971606;28;20185;-87
2022/04/18 08:07:35;;;;;;;24.60;3.50;;;18.20;56.80;;;;;;5002743;28;20511;-88
2022/04/18 08:10:05;;;;;;;17.58;3.45;;;18.50;56.00;;;;;;5002727;28;20161;-89
2022/04/18 08:12:32;;;;;;;12.82;3.80;;;18.70;55.40;;;;;;4973221;28;20064;-90
2022/04/18 08:15:18;;;;;;;11.77;3.63;;;19.00;54.50;;;;;;4992287;28;20056;-78
2022/04/18 08:17:46;;;;;;;11.82;3.45;;;18.90;54.20;;;;;;4989828;28;20050;-89
2022/04/18 08:20:18;;;;;;;16.60;3.38;;;18.50;54.90;;;;;;4994003;28;20066;-90
2022/04/18 08:22:46;;;;;;;21.02;3.45;;;18.30;55.30;;;;;;4972107;28;20529;-90
2022/04/18 08:25:33;;;;;;;12.82;3.67;;;18.50;55.70;;;;;;4973149;28;20058;-92
2022/04/18 08:28:20;;;;;;;12.38;3.45;;;18.60;54.90;;;;;;4970861;28;20034;-88
2022/04/18 08:30:47;;;;;;;13.25;4.00;;;18.40;55.00;;;;;;4991941;28;20051;-89
2022/04/18 08:33:29;;;;;;;11.70;3.20;;;18.00;55.70;;;;;;4989325;28;20049;-91
2022/04/18 08:35:59;;;;;;;11.93;2.88;;;17.90;56.70;;;;;;4991822;28;20204;-88
2022/04/18 08:38:27;;;;;;;15.10;3.92;;;18.40;56.40;;;;;;4978066;28;20039;-79
2022/04/18 08:41:23;;;;;;;9.45;3.83;;;19.30;55.30;;;;;;4970544;28;20462;-83
2022/04/18 08:43:53;;;;;;;16.83;2.80;;;20.20;53.30;;;;;;4968990;28;20078;-80
2022/04/18 08:46:20;;;;;;;18.02;3.95;;;21.00;51.80;;;;;;4970932;28;20059;-81
2022/04/18 08:54:23;;;;;;;26.58;6.32;;;23.20;48.80;;;;;;5024771;28;20053;-82
2022/04/18 08:56:51;;;;;;;86.43;8.75;;;23.50;48.50;;;;;;5025236;28;20073;-84
2022/04/18 08:59:21;;;;;;;17.00;3.97;;;23.90;48.50;;;;;;5008117;28;20062;-84
2022/04/18 09:01:50;;;;;;;11.27;3.25;;;24.10;46.80;;;;;;4991114;28;20042;-83
2022/04/18 09:04:37;;;;;;;13.88;3.67;;;24.30;46.40;;;;;;4970650;28;20081;-83
2022/04/18 09:07:15;;;;;;;14.45;3.30;;;24.40;45.60;;;;;;4969892;28;20051;-83
2022/04/18 09:09:56;;;;;;;14.98;3.67;;;24.40;46.20;;;;;;5001641;28;20078;-83
2022/04/18 09:12:27;;;;;;;12.30;3.08;;;24.40;45.90;;;;;;4969520;28;20046;-83
2022/04/18 09:15:38;;;;;;;10.32;3.05;;;24.60;45.40;;;;;;4969934;28;20051;-85
2022/04/18 09:18:10;;;;;;;7.75;3.00;;;24.90;45.00;;;;;;4955914;28;20051;-85
2022/04/18 09:20:49;;;;;;;15.60;3.08;;;24.30;44.90;;;;;;5010813;28;20058;-83
2022/04/18 09:23:28;;;;;;;11.17;2.97;;;23.80;46.80;;;;;;5003470;28;20061;-84
2022/04/18 09:26:05;;;;;;;17.27;3.03;;;22.70;47.00;;;;;;4988104;28;20136;-87
2022/04/18 09:28:34;;;;;;;16.05;3.15;;;21.70;48.30;;;;;;5008374;28;20050;-87
2022/04/18 09:31:06;;;;;;;11.07;3.25;;;21.20;49.20;;;;;;5001910;28;20114;-84
2022/04/18 09:33:44;;;;;;;15.35;2.70;;;20.70;50.10;;;;;;4967095;28;20059;-84
2022/04/18 09:36:16;;;;;;;13.40;3.45;;;20.30;50.90;;;;;;4952467;28;20118;-84
2022/04/18 09:38:50;;;;;;;17.17;3.60;;;19.80;51.20;;;;;;4966660;28;20066;-84
2022/04/18 09:41:36;;;;;;;11.00;3.17;;;19.50;52.30;;;;;;4971297;28;20455;-83
2022/04/18 09:44:27;;;;;;;10.45;3.10;;;19.10;53.90;;;;;;5001650;28;20051;-83
2022/04/18 09:46:55;;;;;;;8.37;3.07;;;18.90;53.20;;;;;;4977720;28;20054;-83
2022/04/18 09:49:39;;;;;;;12.27;2.72;;;18.60;53.60;;;;;;4970422;28;20049;-82
2022/04/18 09:52:13;;;;;;;7.95;2.83;;;18.30;54.30;;;;;;4989537;28;20109;-84
2022/04/18 09:54:45;;;;;;;13.10;3.15;;;18.20;54.40;;;;;;5002285;28;20145;-84
2022/04/18 09:57:13;;;;;;;9.27;3.05;;;17.90;55.60;;;;;;4973457;28;20533;-84
2022/04/18 09:59:42;;;;;;;10.57;2.92;;;17.80;55.70;;;;;;4990855;28;20050;-82
2022/04/18 10:02:14;;;;;;;10.93;3.22;;;17.60;55.90;;;;;;4993698;28;20069;-83
2022/04/18 10:04:43;;;;;;;9.55;3.10;;;17.60;56.30;;;;;;4982849;28;20141;-83
2022/04/18 10:07:10;;;;;;;17.67;2.90;;;17.50;56.30;;;;;;4973825;28;20054;-84
2022/04/18 10:09:40;;;;;;;19.23;3.15;;;17.50;56.90;;;;;;4974045;28;20070;-83
2022/04/18 10:12:12;;;;;;;10.95;3.00;;;17.60;56.90;;;;;;4973949;28;20070;-84
2022/04/18 10:14:41;;;;;;;16.90;3.95;;;17.80;56.50;;;;;;5001913;28;20046;-84
2022/04/18 10:17:11;;;;;;;20.67;3.47;;;17.90;56.20;;;;;;4972368;28;20105;-84
2022/04/18 10:20:10;;;;;;;14.60;3.28;;;17.90;56.50;;;;;;4989030;28;20058;-84
2022/04/18 10:23:17;;;;;;;9.80;3.33;;;17.90;56.40;;;;;;4979915;28;20050;-81
2022/04/18 10:26:38;;;;;;;9.10;2.70;;;17.90;56.40;;;;;;4993022;28;20050;-82
2022/04/18 10:29:11;;;;;;;15.20;3.38;;;17.90;55.60;;;;;;4991986;28;20511;-84
2022/04/18 10:31:42;;;;;;;18.30;3.67;;;17.60;56.20;;;;;;4989212;28;20479;-84
2022/04/18 10:34:13;;;;;;;13.10;3.33;;;17.50;56.80;;;;;;4973427;28;20043;-85
2022/04/18 10:36:48;;;;;;;12.48;2.60;;;17.40;57.80;;;;;;4973697;28;20063;-84
2022/04/18 10:39:18;;;;;;;10.75;2.70;;;17.40;57.20;;;;;;4973358;28;20566;-81
2022/04/18 10:41:47;;;;;;;12.43;2.90;;;17.50;56.70;;;;;;4972397;28;20050;-87
2022/04/18 10:44:17;;;;;;;14.00;3.47;;;17.60;56.80;;;;;;4975781;28;20057;-86
2022/04/18 10:47:04;;;;;;;17.98;3.90;;;17.60;56.60;;;;;;4983327;28;20084;-85
2022/04/18 10:49:32;;;;;;;9.38;3.40;;;17.60;56.70;;;;;;4986291;28;20537;-86
2022/04/18 10:52:09;;;;;;;10.50;2.65;;;17.60;57.00;;;;;;5009650;28;20045;-85
2022/04/18 10:54:37;;;;;;;11.75;3.13;;;17.50;56.80;;;;;;5012053;28;20093;-86
2022/04/18 10:57:11;;;;;;;12.15;4.13;;;17.50;56.80;;;;;;5010880;28;20140;-84
2022/04/18 10:59:45;;;;;;;8.40;2.90;;;17.50;56.80;;;;;;4977776;28;20062;-85
2022/04/18 11:02:39;;;;;;;25.40;3.45;;;17.50;57.20;;;;;;4971250;28;20101;-84
2022/04/18 11:05:08;;;;;;;15.13;3.22;;;17.60;56.80;;;;;;4972551;28;20055;-84
2022/04/18 11:07:39;;;;;;;11.20;3.15;;;17.60;57.60;;;;;;4974850;28;20046;-85
2022/04/18 11:10:19;;;;;;;17.38;3.63;;;17.80;57.30;;;;;;4992912;28;20077;-84
2022/04/18 11:12:47;;;;;;;12.15;3.00;;;17.90;57.00;;;;;;4990739;28;20061;-84
2022/04/18 11:15:17;;;;;;;17.73;3.25;;;18.00;56.80;;;;;;4992741;28;20073;-84
2022/04/18 11:17:44;;;;;;;8.93;3.45;;;18.30;56.30;;;;;;4989254;28;20078;-85
2022/04/18 11:20:29;;;;;;;9.35;3.13;;;18.60;55.60;;;;;;4991224;28;20060;-84
2022/04/18 11:23:23;;;;;;;10.88;3.25;;;18.70;55.00;;;;;;4990511;28;20100;-85
2022/04/18 11:25:53;;;;;;;16.92;3.85;;;18.50;55.00;;;;;;4985152;28;20491;-85
2022/04/18 11:28:21;;;;;;;11.52;3.00;;;18.40;55.70;;;;;;4969848;28;20051;-81
2022/04/18 11:30:51;;;;;;;16.70;3.42;;;18.50;55.60;;;;;;4972875;28;20082;-83
2022/04/18 11:33:19;;;;;;;13.98;3.15;;;18.70;55.30;;;;;;4971541;28;20081;-82
2022/04/18 11:35:46;;;;;;;12.00;3.83;;;18.80;55.00;;;;;;4954850;28;20141;-81
2022/04/18 11:38:14;;;;;;;15.13;3.50;;;18.80;55.80;;;;;;4971339;28;20053;-81
2022/04/18 11:40:44;;;;;;;11.75;3.55;;;18.90;55.10;;;;;;4973083;28;20288;-80
2022/04/18 11:43:13;;;;;;;15.48;3.70;;;19.10;55.00;;;;;;4970922;28;20196;-81
2022/04/18 11:45:41;;;;;;;12.38;3.28;;;19.10;55.00;;;;;;4971509;28;20043;-82
2022/04/18 11:48:12;;;;;;;10.15;3.60;;;19.20;55.20;;;;;;4969719;28;20054;-83
2022/04/18 11:50:43;;;;;;;20.93;3.70;;;19.20;54.70;;;;;;4981087;28;20085;-82
2022/04/18 11:53:12;;;;;;;14.02;2.95;;;19.30;54.80;;;;;;4983675;28;20162;-83
2022/04/18 11:55:44;;;;;;;24.65;3.50;;;19.20;54.40;;;;;;4981939;28;20047;-83
2022/04/18 11:58:13;;;;;;;8.55;3.20;;;19.30;54.60;;;;;;4977331;28;20058;-85
2022/04/18 12:09:01;;;;;;;14.52;3.72;;;19.40;53.90;;;;;;4984561;28;20058;-82
2022/04/18 12:11:34;;;;;;;19.42;5.57;;;19.30;54.10;;;;;;4982090;28;20051;-82
2022/04/18 12:14:02;;;;;;;16.80;3.70;;;19.30;54.50;;;;;;4955641;28;20058;-84
2022/04/18 12:16:33;;;;;;;10.13;3.50;;;19.10;54.70;;;;;;4972125;28;20058;-83
2022/04/18 12:19:02;;;;;;;16.15;3.47;;;19.10;55.50;;;;;;4972142;28;20042;-83
2022/04/18 12:21:29;;;;;;;8.80;3.40;;;19.20;55.30;;;;;;4972770;28;20553;-84
2022/04/18 12:23:59;;;;;;;15.27;3.47;;;19.10;54.80;;;;;;4972615;28;20055;-84
2022/04/18 12:26:28;;;;;;;11.95;3.50;;;19.20;54.60;;;;;;4973312;28;20049;-83
2022/04/18 12:29:00;;;;;;;20.67;3.88;;;19.20;54.50;;;;;;4975912;28;20511;-84
2022/04/18 12:31:29;;;;;;;12.48;3.78;;;19.20;54.70;;;;;;4991084;28;20455;-85
2022/04/18 12:33:56;;;;;;;21.35;3.65;;;19.30;54.60;;;;;;4992074;28;20081;-83
2022/04/18 12:36:29;;;;;;;18.65;4.22;;;19.40;55.00;;;;;;4991118;28;20074;-84
2022/04/18 12:38:57;;;;;;;14.35;3.58;;;19.40;55.10;;;;;;5005442;28;20050;-85
2022/04/18 12:41:29;;;;;;;32.97;4.57;;;19.10;54.80;;;;;;4990571;28;20504;-83
2022/04/18 12:43:57;;;;;;;15.15;4.22;;;18.80;55.20;;;;;;4990814;28;20054;-83
2022/04/18 12:46:26;;;;;;;15.93;3.72;;;18.70;55.90;;;;;;4991876;28;20053;-81
2022/04/18 12:48:54;;;;;;;16.38;4.25;;;18.50;56.40;;;;;;4991050;28;20073;-81
2022/04/18 12:51:35;;;;;;;15.80;3.65;;;18.30;56.80;;;;;;4992277;28;20487;-81
2022/04/18 12:54:03;;;;;;;7.45;3.40;;;18.20;57.00;;;;;;4999567;28;20041;-82
2022/04/18 12:56:31;;;;;;;8.02;3.10;;;18.10;57.10;;;;;;4994860;28;20094;-81
2022/04/18 12:59:06;;;;;;;8.10;2.97;;;18.00;56.70;;;;;;4986328;28;20145;-82
2022/04/18 13:01:36;;;;;;;24.05;3.50;;;17.90;57.40;;;;;;4990047;28;20054;-81
2022/04/18 13:04:05;;;;;;;7.20;3.00;;;17.90;56.70;;;;;;4991162;28;20054;-82
2022/04/18 13:06:35;;;;;;;8.50;2.38;;;17.70;55.80;;;;;;4975267;28;20065;-81
2022/04/18 13:09:07;;;;;;;5.03;2.35;;;17.60;56.50;;;;;;4954665;28;20455;-80
2022/04/18 13:11:39;;;;;;;7.60;2.65;;;17.60;56.50;;;;;;4970628;28;20522;-81
2022/04/18 13:14:10;;;;;;;5.43;2.20;;;17.60;56.00;;;;;;4973296;28;20062;-82
2022/04/18 13:16:39;;;;;;;7.68;2.20;;;17.60;56.20;;;;;;4989987;28;20054;-80
2022/04/18 13:19:10;;;;;;;11.20;3.08;;;17.50;55.80;;;;;;4991110;28;20134;-82
2022/04/18 13:21:40;;;;;;;8.40;2.25;;;17.40;56.10;;;;;;4991011;28;20050;-82
2022/04/18 13:24:10;;;;;;;9.20;2.47;;;17.30;56.40;;;;;;4990533;28;20137;-83
2022/04/18 13:26:38;;;;;;;7.43;2.33;;;17.30;56.90;;;;;;4991269;28;20133;-83
2022/04/18 13:29:06;;;;;;;4.75;2.28;;;17.40;56.30;;;;;;4991254;28;20153;-82
2022/04/18 13:31:34;;;;;;;10.13;1.70;;;17.30;56.20;;;;;;4993088;28;20715;-82
2022/04/18 13:34:01;;;;;;;4.72;2.53;;;17.30;56.40;;;;;;4973961;28;20097;-83